Time;durP1;ratioP1;P1;durP2;ratioP2;P2;SDS_P1;SDS_P2;PMS_P1;PMS_P2;Temp;Humidity;BMP_temperature;BMP_pressure;BME280_temperature;BME280_humidity;BME280_pressure;Samples;Min_cycle;Max_cycle;Signal;HPM_P1;HPM_P2
2023/06/14 00:00:20;;;;;;;6.83;2.53;;;17.20;78.40;;;;;;5073976;28;20480;-71
2023/06/14 00:02:45;;;;;;;7.67;2.40;;;17.20;78.90;;;;;;5074610;28;20105;-71
2023/06/14 00:05:14;;;;;;;8.03;2.70;;;17.20;79.20;;;;;;5074621;28;20661;-73
2023/06/14 00:07:48;;;;;;;5.13;2.47;;;17.10;80.30;;;;;;5073726;28;20066;-71
2023/06/14 00:10:14;;;;;;;6.97;2.10;;;17.00;80.80;;;;;;5072968;28;20044;-71
2023/06/14 00:12:40;;;;;;;8.40;2.47;;;17.00;81.40;;;;;;5073174;28;20048;-72
2023/06/14 00:15:09;;;;;;;7.07;2.60;;;17.00;82.40;;;;;;5089868;28;20062;-72
2023/06/14 00:17:36;;;;;;;4.30;2.00;;;16.90;83.20;;;;;;5072911;28;20400;-73
2023/06/14 00:20:06;;;;;;;7.73;2.30;;;16.90;84.00;;;;;;5074030;28;20055;-72
2023/06/14 00:22:32;;;;;;;5.77;2.33;;;16.90;84.80;;;;;;5073933;28;20742;-72
2023/06/14 00:24:58;;;;;;;5.97;2.03;;;16.90;85.00;;;;;;5074043;28;20045;-72
2023/06/14 00:27:24;;;;;;;5.13;2.20;;;16.90;85.60;;;;;;5073858;28;20481;-72
2023/06/14 00:29:50;;;;;;;6.27;2.47;;;16.80;86.60;;;;;;5073274;28;20433;-72
2023/06/14 00:32:16;;;;;;;5.43;2.10;;;16.80;86.80;;;;;;5089339;28;20416;-72
2023/06/14 00:34:41;;;;;;;6.57;2.10;;;16.80;87.40;;;;;;5072631;28;20492;-72
2023/06/14 00:37:07;;;;;;;5.47;2.43;;;16.70;88.20;;;;;;5073807;28;20049;-72
2023/06/14 00:39:33;;;;;;;7.27;2.37;;;16.70;88.70;;;;;;5072425;28;20127;-72
2023/06/14 00:41:59;;;;;;;7.97;2.20;;;16.70;89.70;;;;;;5073870;28;20131;-72
2023/06/14 00:44:25;;;;;;;4.97;2.60;;;16.70;90.10;;;;;;5073539;28;20041;-72
2023/06/14 00:46:51;;;;;;;6.77;2.40;;;16.60;90.50;;;;;;5073938;28;20052;-71
2023/06/14 00:49:17;;;;;;;5.67;2.40;;;16.60;90.70;;;;;;5072313;28;20503;-70
2023/06/14 00:51:43;;;;;;;5.83;2.03;;;16.60;91.10;;;;;;5073577;28;20044;-71
2023/06/14 00:54:09;;;;;;;6.43;2.53;;;16.50;91.40;;;;;;5073501;28;20301;-71
2023/06/14 00:56:39;;;;;;;6.03;2.50;;;16.50;91.70;;;;;;5072456;28;20054;-71
2023/06/14 00:59:05;;;;;;;6.00;2.23;;;16.40;92.50;;;;;;5089127;28;20091;-71
2023/06/14 01:01:34;;;;;;;5.43;2.13;;;16.40;92.80;;;;;;5073211;28;20275;-71
2023/06/14 01:04:01;;;;;;;10.00;2.60;;;16.40;93.00;;;;;;5073380;28;20048;-72
2023/06/14 01:06:50;;;;;;;8.53;3.00;;;16.30;93.30;;;;;;5073196;28;20274;-72
2023/06/14 01:09:32;;;;;;;5.93;2.27;;;16.30;93.90;;;;;;5072591;28;20283;-72
2023/06/14 01:12:13;;;;;;;4.90;1.97;;;16.20;94.40;;;;;;5073572;28;20396;-73
2023/06/14 01:14:41;;;;;;;7.13;2.70;;;16.30;94.60;;;;;;5072913;28;20497;-72
2023/06/14 01:17:15;;;;;;;7.77;2.40;;;16.20;94.80;;;;;;5073242;28;20301;-73
2023/06/14 01:19:42;;;;;;;6.72;2.42;;;16.20;95.10;;;;;;5073165;28;20375;-72
2023/06/14 01:22:08;;;;;;;8.13;2.40;;;16.10;95.40;;;;;;5073190;28;20400;-72
2023/06/14 01:24:34;;;;;;;4.30;2.10;;;16.10;95.70;;;;;;5073003;28;20275;-72
2023/06/14 01:27:02;;;;;;;6.20;2.43;;;16.10;96.00;;;;;;5072839;28;20778;-72
2023/06/14 01:29:32;;;;;;;6.83;2.30;;;16.10;96.10;;;;;;5072968;28;20366;-72
2023/06/14 01:32:00;;;;;;;7.03;2.20;;;16.00;96.70;;;;;;5073002;28;20278;-72
2023/06/14 01:34:26;;;;;;;9.47;2.47;;;16.00;96.90;;;;;;5072752;28;20347;-72
2023/06/14 01:36:54;;;;;;;4.93;2.00;;;16.00;97.30;;;;;;5071640;28;20762;-72
2023/06/14 01:39:21;;;;;;;7.27;2.10;;;15.90;97.40;;;;;;5072920;28;20052;-73
2023/06/14 01:41:49;;;;;;;6.00;2.07;;;15.90;98.00;;;;;;5070921;28;20305;-72
2023/06/14 01:44:17;;;;;;;4.07;1.47;;;15.90;97.90;;;;;;5072944;28;20279;-72
2023/06/14 01:46:43;;;;;;;6.13;1.87;;;15.90;98.20;;;;;;5072661;28;20770;-72
2023/06/14 01:49:10;;;;;;;3.57;1.70;;;15.80;98.50;;;;;;5072872;28;20287;-72
2023/06/14 01:51:35;;;;;;;4.53;1.90;;;15.90;98.50;;;;;;5072502;28;20279;-71
2023/06/14 01:54:02;;;;;;;3.90;1.83;;;15.80;99.00;;;;;;5072012;28;20305;-72
2023/06/14 01:56:27;;;;;;;3.83;1.80;;;15.80;99.10;;;;;;5072757;28;20297;-71
2023/06/14 01:58:53;;;;;;;6.10;2.20;;;15.80;99.50;;;;;;5072842;28;20040;-72
2023/06/14 02:01:21;;;;;;;4.80;2.07;;;15.70;99.90;;;;;;5072915;28;20485;-72
2023/06/14 02:03:49;;;;;;;3.23;1.60;;;15.70;99.70;;;;;;5072630;28;20040;-72
2023/06/14 02:06:15;;;;;;;5.57;2.03;;;15.70;99.90;;;;;;5072726;28;20283;-72
2023/06/14 02:08:42;;;;;;;5.87;2.00;;;15.60;99.90;;;;;;5075539;28;20340;-71
2023/06/14 02:11:08;;;;;;;6.57;2.20;;;15.60;99.90;;;;;;5076913;28;20342;-72
2023/06/14 02:13:34;;;;;;;8.97;2.60;;;15.60;99.90;;;;;;5074913;28;20279;-71
2023/06/14 02:16:00;;;;;;;4.53;2.20;;;15.50;99.90;;;;;;5076695;28;20392;-73
2023/06/14 02:18:27;;;;;;;7.00;2.50;;;15.50;99.90;;;;;;5076290;28;20282;-71
2023/06/14 02:20:53;;;;;;;10.57;2.60;;;15.50;99.90;;;;;;5076420;28;20282;-72
2023/06/14 02:23:18;;;;;;;5.10;1.93;;;15.50;99.90;;;;;;5092087;28;20424;-72
2023/06/14 02:25:45;;;;;;;6.57;1.97;;;15.50;99.90;;;;;;5076251;28;20102;-72
2023/06/14 02:28:12;;;;;;;5.93;2.10;;;15.40;99.90;;;;;;5075290;28;20396;-72
2023/06/14 02:30:37;;;;;;;5.30;1.90;;;15.40;99.90;;;;;;5076063;28;20421;-72
2023/06/14 02:33:04;;;;;;;8.53;2.23;;;15.40;99.90;;;;;;5076564;28;20354;-72
2023/06/14 02:35:30;;;;;;;5.43;2.00;;;15.30;99.90;;;;;;5058313;28;20045;-72
2023/06/14 02:37:56;;;;;;;4.17;2.10;;;15.30;99.90;;;;;;5075976;28;20734;-72
2023/06/14 02:40:23;;;;;;;6.70;2.03;;;15.30;99.90;;;;;;5058296;28;20287;-72
2023/06/14 02:42:49;;;;;;;4.10;2.07;;;15.30;99.90;;;;;;5074621;28;20063;-72
2023/06/14 02:45:14;;;;;;;4.20;2.30;;;15.20;99.90;;;;;;5076000;28;20751;-72
2023/06/14 02:47:40;;;;;;;3.40;1.60;;;15.20;99.90;;;;;;5075532;28;20091;-72
2023/06/14 02:50:07;;;;;;;5.07;2.03;;;15.10;99.90;;;;;;5074697;28;20051;-72
2023/06/14 02:52:34;;;;;;;4.60;1.80;;;15.10;99.90;;;;;;5074754;28;20087;-72
2023/06/14 02:54:59;;;;;;;8.13;3.17;;;15.10;99.90;;;;;;5075688;28;20295;-72
2023/06/14 02:57:25;;;;;;;5.80;2.00;;;15.10;99.90;;;;;;5074772;28;20314;-73
2023/06/14 02:59:52;;;;;;;6.30;2.30;;;15.10;99.90;;;;;;5073987;28;20131;-72
2023/06/14 03:02:17;;;;;;;6.57;2.00;;;15.00;99.90;;;;;;5075676;28;20087;-74
2023/06/14 03:04:44;;;;;;;8.60;2.30;;;15.00;99.90;;;;;;5075498;28;20307;-72
2023/06/14 03:07:10;;;;;;;7.07;2.33;;;15.00;99.90;;;;;;5074323;28;20052;-73
2023/06/14 03:09:37;;;;;;;8.30;2.63;;;14.90;99.90;;;;;;5075354;28;20294;-72
2023/06/14 03:12:04;;;;;;;4.60;2.20;;;14.90;99.90;;;;;;5074660;28;20327;-73
2023/06/14 03:14:30;;;;;;;5.53;2.07;;;14.90;99.90;;;;;;5074348;28;20379;-72
2023/06/14 03:16:56;;;;;;;4.30;2.00;;;14.90;99.90;;;;;;5075273;28;20279;-73
2023/06/14 03:19:23;;;;;;;4.73;2.00;;;14.90;99.90;;;;;;5090179;28;20283;-72
2023/06/14 03:21:49;;;;;;;4.23;2.10;;;14.90;99.90;;;;;;5075134;28;20275;-71
2023/06/14 03:24:18;;;;;;;3.87;1.90;;;14.80;99.90;;;;;;5057824;28;20758;-72
2023/06/14 03:26:43;;;;;;;6.03;2.53;;;14.80;99.90;;;;;;5074851;28;20275;-72
2023/06/14 03:29:09;;;;;;;5.97;2.03;;;14.80;99.90;;;;;;5075237;28;20282;-71
2023/06/14 03:31:36;;;;;;;5.20;2.00;;;14.80;99.90;;;;;;5073952;28;20041;-71
2023/06/14 03:34:02;;;;;;;6.40;2.50;;;14.80;99.90;;;;;;5075091;28;20063;-72
2023/06/14 03:36:27;;;;;;;6.53;2.27;;;14.80;99.90;;;;;;5075020;28;20763;-72
2023/06/14 03:38:55;;;;;;;4.97;2.00;;;14.80;99.90;;;;;;5074868;28;20070;-72
2023/06/14 03:41:21;;;;;;;5.03;2.27;;;14.80;99.90;;;;;;5073562;28;20452;-73
2023/06/14 03:43:46;;;;;;;5.07;2.17;;;14.80;99.90;;;;;;5073441;28;20274;-72
2023/06/14 03:46:12;;;;;;;8.10;2.20;;;14.80;99.90;;;;;;5074898;28;20286;-72
2023/06/14 03:48:38;;;;;;;4.80;2.13;;;14.80;99.90;;;;;;5074637;28;20400;-71
2023/06/14 03:51:04;;;;;;;5.67;1.97;;;14.80;99.90;;;;;;5073499;28;20098;-72
2023/06/14 03:53:30;;;;;;;5.80;2.07;;;14.80;99.90;;;;;;5074752;28;20306;-72
2023/06/14 03:55:57;;;;;;;4.43;2.00;;;14.70;99.90;;;;;;5074450;28;21054;-72
2023/06/14 03:58:22;;;;;;;5.00;2.33;;;14.80;99.90;;;;;;5073542;28;20048;-72
2023/06/14 04:00:48;;;;;;;6.17;2.57;;;14.80;99.90;;;;;;5073110;28;20366;-72
2023/06/14 04:03:15;;;;;;;5.87;2.40;;;14.80;99.90;;;;;;5074526;28;20090;-72
2023/06/14 04:05:44;;;;;;;6.43;2.00;;;14.80;99.90;;;;;;5056752;28;20045;-71
2023/06/14 04:08:10;;;;;;;6.63;2.13;;;14.80;99.90;;;;;;5090276;28;20326;-72
2023/06/14 04:10:35;;;;;;;4.70;2.07;;;14.80;99.90;;;;;;5074323;28;20317;-72
2023/06/14 04:13:01;;;;;;;5.77;2.37;;;14.80;99.90;;;;;;5074181;28;20109;-72
2023/06/14 04:15:30;;;;;;;5.40;2.27;;;14.90;99.90;;;;;;5074212;28;20063;-72
2023/06/14 04:17:57;;;;;;;8.97;2.10;;;14.80;99.90;;;;;;5072984;28;20464;-72
2023/06/14 04:20:24;;;;;;;4.93;2.40;;;14.90;99.90;;;;;;5073169;28;20779;-72
2023/06/14 04:22:51;;;;;;;4.27;2.33;;;15.00;99.90;;;;;;5073927;28;20287;-72
2023/06/14 04:25:16;;;;;;;5.30;2.40;;;15.00;99.90;;;;;;5056700;28;20326;-72
2023/06/14 04:27:43;;;;;;;5.27;2.40;;;15.00;99.90;;;;;;5073887;28;20313;-72
2023/06/14 04:30:09;;;;;;;4.30;2.20;;;15.10;99.90;;;;;;5073784;28;20127;-72
2023/06/14 04:32:38;;;;;;;6.23;2.30;;;15.10;99.90;;;;;;5074044;28;20335;-72
2023/06/14 04:35:08;;;;;;;6.47;2.10;;;15.20;99.90;;;;;;5072467;28;20382;-72
2023/06/14 04:37:34;;;;;;;8.83;2.73;;;15.30;99.90;;;;;;5072831;28;20786;-72
2023/06/14 04:40:00;;;;;;;5.30;1.90;;;15.40;99.90;;;;;;5072135;28;20279;-72
2023/06/14 04:42:31;;;;;;;7.77;2.57;;;15.40;99.90;;;;;;5074041;28;20052;-72
2023/06/14 04:44:57;;;;;;;4.90;2.37;;;15.50;99.90;;;;;;5073701;28;20372;-72
2023/06/14 04:47:24;;;;;;;6.70;2.30;;;15.70;99.90;;;;;;5073971;28;20275;-72
2023/06/14 04:49:53;;;;;;;5.27;2.30;;;15.80;99.90;;;;;;5072235;28;20765;-72
2023/06/14 04:52:20;;;;;;;10.47;2.77;;;15.90;99.90;;;;;;5072670;28;20297;-72
2023/06/14 04:54:46;;;;;;;4.90;2.47;;;16.00;99.90;;;;;;5073256;28;20298;-72
2023/06/14 04:57:17;;;;;;;4.63;2.20;;;16.10;99.90;;;;;;5073574;28;20315;-72
2023/06/14 04:59:43;;;;;;;7.57;2.60;;;16.30;99.90;;;;;;5073616;28;20631;-72
2023/06/14 05:02:13;;;;;;;7.93;2.37;;;16.40;99.90;;;;;;5072582;28;20290;-72
2023/06/14 05:04:39;;;;;;;7.77;2.90;;;16.50;99.90;;;;;;5055452;28;20283;-72
2023/06/14 05:07:07;;;;;;;7.53;2.47;;;16.60;99.90;;;;;;5073183;28;20480;-73
2023/06/14 05:09:33;;;;;;;7.50;2.73;;;16.70;99.90;;;;;;5073373;28;20275;-72
2023/06/14 05:12:00;;;;;;;6.20;2.90;;;16.80;99.90;;;;;;5072146;28;20305;-72
2023/06/14 05:14:26;;;;;;;5.10;2.50;;;16.90;99.90;;;;;;5073258;28;20044;-72
2023/06/14 05:16:53;;;;;;;5.13;2.53;;;17.00;99.90;;;;;;5071897;28;20374;-72
2023/06/14 05:19:20;;;;;;;6.33;2.47;;;17.20;99.90;;;;;;5073246;28;20283;-72
2023/06/14 05:21:47;;;;;;;6.33;2.60;;;17.30;99.90;;;;;;5071998;28;20282;-72
2023/06/14 05:24:19;;;;;;;6.20;2.50;;;17.50;99.90;;;;;;5073224;28;20275;-72
2023/06/14 05:26:46;;;;;;;5.23;2.40;;;17.50;99.90;;;;;;5073244;28;20271;-72
2023/06/14 05:29:12;;;;;;;9.00;2.67;;;17.60;99.90;;;;;;5073163;28;20290;-72
2023/06/14 05:31:38;;;;;;;6.37;2.57;;;17.70;99.90;;;;;;5072187;28;20647;-72
2023/06/14 05:34:04;;;;;;;12.17;2.70;;;17.70;99.90;;;;;;5072888;28;20287;-72
2023/06/14 05:36:30;;;;;;;7.27;2.43;;;17.90;99.90;;;;;;5088671;28;20149;-73
2023/06/14 05:38:57;;;;;;;8.70;3.80;;;18.10;99.90;;;;;;5071553;28;20049;-72
2023/06/14 05:41:26;;;;;;;5.70;2.57;;;18.20;99.90;;;;;;5073281;28;20417;-72
2023/06/14 05:43:52;;;;;;;7.03;2.93;;;18.30;99.90;;;;;;5078966;28;20279;-72
2023/06/14 05:46:24;;;;;;;6.20;2.70;;;18.50;99.90;;;;;;5079586;28;20477;-72
2023/06/14 05:48:50;;;;;;;6.93;2.87;;;18.70;99.90;;;;;;5079610;28;20075;-72
2023/06/14 05:51:18;;;;;;;7.93;2.93;;;19.70;99.90;;;;;;5079799;28;20048;-72
2023/06/14 05:53:46;;;;;;;7.10;2.83;;;21.20;99.90;;;;;;5079554;28;20088;-72
2023/06/14 05:56:12;;;;;;;5.80;2.50;;;22.30;95.30;;;;;;5079364;28;20049;-72
2023/06/14 05:58:37;;;;;;;7.07;2.60;;;23.40;93.10;;;;;;5078743;28;20504;-73
2023/06/14 06:01:03;;;;;;;6.50;2.50;;;24.40;86.10;;;;;;5078314;28;20045;-72
2023/06/14 06:03:29;;;;;;;6.33;2.87;;;25.10;74.10;;;;;;5078273;28;20048;-73
2023/06/14 06:05:55;;;;;;;5.67;3.40;;;25.90;67.40;;;;;;5079205;28;20036;-72
2023/06/14 06:08:21;;;;;;;6.97;3.63;;;26.60;61.50;;;;;;5078107;28;20059;-72
2023/06/14 06:10:46;;;;;;;7.77;3.20;;;26.90;57.40;;;;;;5079403;28;20052;-73
2023/06/14 06:13:12;;;;;;;6.90;2.80;;;27.10;56.10;;;;;;5078935;28;20510;-72
2023/06/14 06:15:38;;;;;;;7.67;3.77;;;27.80;54.50;;;;;;5079325;28;20081;-73
2023/06/14 06:18:04;;;;;;;6.53;3.00;;;28.40;52.60;;;;;;5079169;28;20056;-73
2023/06/14 06:20:31;;;;;;;7.00;2.50;;;28.90;51.30;;;;;;5079459;28;20500;-72
2023/06/14 06:23:00;;;;;;;8.83;3.10;;;29.10;49.10;;;;;;5079058;28;20083;-72
2023/06/14 06:25:26;;;;;;;7.00;3.07;;;29.70;46.60;;;;;;5079223;28;20052;-72
2023/06/14 06:27:54;;;;;;;9.17;2.83;;;30.20;47.20;;;;;;5079227;28;20137;-72
2023/06/14 06:30:20;;;;;;;6.23;2.40;;;30.50;45.50;;;;;;5079208;28;20044;-72
2023/06/14 06:32:47;;;;;;;5.57;2.87;;;30.90;44.20;;;;;;5079317;28;20067;-72
2023/06/14 06:35:13;;;;;;;8.97;2.67;;;30.80;42.70;;;;;;5078872;28;20048;-72
2023/06/14 06:37:40;;;;;;;7.30;2.87;;;30.90;43.20;;;;;;5079177;28;20131;-73
2023/06/14 06:40:07;;;;;;;8.05;3.25;;;31.30;42.20;;;;;;5078593;28;20491;-72
2023/06/14 06:42:33;;;;;;;5.25;2.20;;;31.20;41.40;;;;;;5079346;28;20055;-73
2023/06/14 06:44:59;;;;;;;5.00;2.55;;;31.20;41.10;;;;;;5078919;28;20388;-72
2023/06/14 06:47:25;;;;;;;7.20;2.70;;;31.40;40.00;;;;;;5078090;28;20051;-72
2023/06/14 06:49:50;;;;;;;4.47;2.50;;;31.10;40.00;;;;;;5079227;28;20052;-73
2023/06/14 06:52:16;;;;;;;5.78;2.25;;;31.40;39.80;;;;;;5078820;28;20044;-73
2023/06/14 06:54:42;;;;;;;5.72;3.05;;;31.30;39.70;;;;;;5076470;28;20135;-73
2023/06/14 06:57:08;;;;;;;6.63;2.78;;;31.60;39.40;;;;;;5075628;28;20090;-73
2023/06/14 06:59:34;;;;;;;7.07;2.28;;;32.30;39.30;;;;;;5075099;28;20080;-73
2023/06/14 07:02:00;;;;;;;5.38;2.33;;;32.50;37.90;;;;;;5074603;28;20044;-73
2023/06/14 07:04:26;;;;;;;4.53;2.15;;;31.50;37.60;;;;;;5075739;28;20051;-73
2023/06/14 07:06:51;;;;;;;5.80;2.28;;;31.90;38.60;;;;;;5074627;28;20051;-71
2023/06/14 07:09:19;;;;;;;6.35;2.65;;;31.90;38.30;;;;;;5075463;28;20052;-70
2023/06/14 07:11:45;;;;;;;3.95;2.30;;;32.10;38.10;;;;;;5075607;28;20052;-73
2023/06/14 07:14:11;;;;;;;3.92;2.08;;;32.40;38.10;;;;;;5074078;28;20044;-73
2023/06/14 07:16:37;;;;;;;4.82;2.50;;;32.90;37.80;;;;;;5075497;28;20127;-72
2023/06/14 07:19:04;;;;;;;5.78;2.60;;;33.30;37.20;;;;;;5075281;28;20041;-73
2023/06/14 07:21:30;;;;;;;8.10;2.70;;;33.40;36.50;;;;;;5075364;28;20051;-72
2023/06/14 07:23:56;;;;;;;5.88;2.75;;;33.50;36.30;;;;;;5075330;28;20095;-73
2023/06/14 07:26:22;;;;;;;6.20;2.42;;;33.20;36.10;;;;;;5075115;28;20075;-72
2023/06/14 07:28:49;;;;;;;4.28;2.10;;;33.20;36.30;;;;;;5075268;28;20040;-72
2023/06/14 07:31:19;;;;;;;4.50;2.58;;;33.20;35.80;;;;;;5073990;28;20087;-72
2023/06/14 07:33:45;;;;;;;4.13;2.20;;;32.70;35.90;;;;;;5073883;28;20045;-71
2023/06/14 07:36:11;;;;;;;4.97;2.42;;;32.50;36.10;;;;;;5074906;28;20046;-72
2023/06/14 07:38:36;;;;;;;7.88;2.53;;;32.10;36.20;;;;;;5075100;28;20048;-72
2023/06/14 07:41:02;;;;;;;7.38;2.63;;;32.50;36.60;;;;;;5074713;28;20051;-72
2023/06/14 07:43:29;;;;;;;5.85;2.40;;;32.50;35.90;;;;;;5074930;28;20048;-72
2023/06/14 07:45:55;;;;;;;4.22;2.55;;;32.30;36.10;;;;;;5074857;28;20090;-72
2023/06/14 07:48:21;;;;;;;5.85;2.42;;;32.70;35.90;;;;;;5074630;28;20090;-72
2023/06/14 07:50:46;;;;;;;3.70;2.05;;;32.90;35.70;;;;;;5074782;28;20497;-72
2023/06/14 07:53:12;;;;;;;6.18;2.42;;;33.10;35.60;;;;;;5074619;28;20050;-72
2023/06/14 07:55:39;;;;;;;5.35;2.35;;;33.00;35.10;;;;;;5073574;28;20082;-72
2023/06/14 07:58:08;;;;;;;8.70;2.70;;;33.30;35.60;;;;;;5074561;28;20052;-72
2023/06/14 08:00:34;;;;;;;7.63;2.58;;;33.80;35.40;;;;;;5074642;28;20051;-72
2023/06/14 08:03:00;;;;;;;4.57;2.50;;;33.90;35.00;;;;;;5073436;28;20045;-72
2023/06/14 08:05:26;;;;;;;6.10;2.95;;;34.20;34.80;;;;;;5073848;28;20501;-72
2023/06/14 08:07:52;;;;;;;5.28;2.58;;;33.90;33.80;;;;;;5073488;28;20052;-72
2023/06/14 08:10:18;;;;;;;4.85;2.63;;;33.70;34.40;;;;;;5073203;28;20507;-72
2023/06/14 08:12:44;;;;;;;6.28;3.00;;;33.70;34.70;;;;;;5074435;28;20044;-72
2023/06/14 08:15:10;;;;;;;6.00;2.42;;;33.80;34.60;;;;;;5073031;28;20048;-73
2023/06/14 08:17:36;;;;;;;6.68;2.60;;;34.20;34.60;;;;;;5074292;28;20202;-72
2023/06/14 08:20:05;;;;;;;4.65;2.50;;;34.10;34.20;;;;;;5074383;28;20145;-72
2023/06/14 08:22:33;;;;;;;7.45;2.90;;;34.10;34.00;;;;;;5074369;28;20091;-72
2023/06/14 08:25:03;;;;;;;7.57;2.70;;;34.30;34.10;;;;;;5074199;28;20048;-73
2023/06/14 08:27:29;;;;;;;5.90;2.60;;;34.10;33.50;;;;;;5073852;28;20045;-72
2023/06/14 08:29:55;;;;;;;6.95;2.75;;;33.40;33.90;;;;;;5074046;28;20085;-73
2023/06/14 08:32:21;;;;;;;4.30;2.40;;;32.80;34.40;;;;;;5089557;28;20407;-72
2023/06/14 08:34:47;;;;;;;5.13;2.83;;;33.10;34.90;;;;;;5073902;28;20044;-72
2023/06/14 08:37:13;;;;;;;4.38;2.22;;;32.70;34.50;;;;;;5073724;28;20044;-72
2023/06/14 08:39:39;;;;;;;3.67;2.42;;;32.70;34.70;;;;;;5073828;28;20056;-72
2023/06/14 08:42:07;;;;;;;6.40;2.40;;;32.70;34.90;;;;;;5073329;28;20139;-72
2023/06/14 08:44:34;;;;;;;6.97;2.78;;;32.20;35.50;;;;;;5089414;28;20555;-72
2023/06/14 08:47:00;;;;;;;4.65;2.40;;;31.70;35.50;;;;;;5073778;28;20067;-72
2023/06/14 08:49:26;;;;;;;4.97;2.40;;;31.30;35.60;;;;;;5072476;28;20041;-72
2023/06/14 08:52:00;;;;;;;6.63;2.38;;;31.10;36.40;;;;;;5073606;28;20048;-72
2023/06/14 08:54:35;;;;;;;;;;;30.60;36.60;;;;;;5072346;28;20102;-72
2023/06/14 08:57:04;;;;;;;8.18;2.80;;;30.20;37.70;;;;;;5073956;28;20013;-72
2023/06/14 08:59:33;;;;;;;6.57;2.50;;;29.60;37.20;;;;;;5072949;28;20492;-71
2023/06/14 09:02:00;;;;;;;4.57;2.10;;;29.00;37.30;;;;;;5073451;28;20181;-73
2023/06/14 09:04:29;;;;;;;5.20;2.15;;;28.90;37.90;;;;;;5071983;28;20123;-72
2023/06/14 09:06:55;;;;;;;4.60;2.22;;;28.50;38.00;;;;;;5072576;28;20057;-72
2023/06/14 09:09:22;;;;;;;4.00;2.35;;;28.40;38.20;;;;;;5073179;28;20089;-72
2023/06/14 09:11:50;;;;;;;4.43;2.35;;;28.20;38.80;;;;;;5073626;28;20066;-73
2023/06/14 09:14:15;;;;;;;6.22;2.28;;;27.80;39.00;;;;;;5072974;28;20144;-71
2023/06/14 09:16:41;;;;;;;5.50;2.20;;;27.40;39.40;;;;;;5071359;28;20052;-72
2023/06/14 09:19:07;;;;;;;5.07;2.25;;;27.20;39.50;;;;;;5073154;28;20048;-72
2023/06/14 09:21:38;;;;;;;3.15;1.88;;;27.00;39.90;;;;;;5073032;28;20133;-72
2023/06/14 09:24:04;;;;;;;4.30;1.80;;;26.90;40.60;;;;;;5071899;28;20052;-71
2023/06/14 09:26:31;;;;;;;4.93;2.30;;;26.80;40.70;;;;;;5072008;28;20123;-71
2023/06/14 09:28:57;;;;;;;12.57;2.58;;;26.70;41.00;;;;;;5073159;28;20118;-72
2023/06/14 09:31:23;;;;;;;7.72;2.22;;;26.50;40.70;;;;;;5072579;28;20037;-72
2023/06/14 09:33:50;;;;;;;5.30;2.38;;;26.30;41.20;;;;;;5073012;28;20102;-71
2023/06/14 09:36:21;;;;;;;7.23;2.10;;;26.10;41.10;;;;;;5072817;28;20052;-71
2023/06/14 09:38:54;;;;;;;5.50;2.27;;;26.10;41.90;;;;;;5073014;28;20526;-72
2023/06/14 09:41:20;;;;;;;5.50;2.23;;;25.90;42.40;;;;;;5072709;28;20057;-71
2023/06/14 09:43:47;;;;;;;6.47;2.77;;;25.90;41.80;;;;;;5073274;28;20075;-72
2023/06/14 09:46:13;;;;;;;5.17;2.40;;;25.80;42.30;;;;;;5072891;28;20132;-72
2023/06/14 09:48:42;;;;;;;4.83;2.20;;;25.80;42.50;;;;;;5088716;28;20044;-72
2023/06/14 09:51:13;;;;;;;6.77;1.90;;;25.80;42.40;;;;;;5072934;28;20057;-72
2023/06/14 09:53:41;;;;;;;3.37;1.83;;;25.70;42.80;;;;;;5088415;28;20045;-72
2023/06/14 09:56:07;;;;;;;5.30;2.10;;;25.40;42.50;;;;;;5073063;28;20098;-72
2023/06/14 09:58:37;;;;;;;5.60;2.00;;;25.40;42.50;;;;;;5072595;28;20105;-71
2023/06/14 10:01:05;;;;;;;3.97;2.03;;;25.40;42.70;;;;;;5088539;28;20052;-71
2023/06/14 10:03:32;;;;;;;4.20;2.00;;;25.40;42.80;;;;;;5088180;28;20053;-72
2023/06/14 10:06:07;;;;;;;4.67;2.30;;;25.40;42.90;;;;;;5072813;28;20131;-72
2023/06/14 10:08:36;;;;;;;6.07;2.33;;;25.50;42.90;;;;;;5071519;28;20059;-71
2023/06/14 10:11:02;;;;;;;4.17;1.93;;;25.40;43.00;;;;;;5072394;28;20484;-73
2023/06/14 10:13:33;;;;;;;6.47;2.20;;;25.30;42.70;;;;;;5072513;28;20151;-71
2023/06/14 10:16:15;;;;;;;7.70;2.40;;;25.20;42.60;;;;;;5072656;28;20029;-71
2023/06/14 10:19:08;;;;;;;4.93;2.30;;;25.10;42.90;;;;;;5072472;28;20048;-71
2023/06/14 10:21:56;;;;;;;4.50;2.17;;;25.10;43.60;;;;;;5072469;28;20503;-71
2023/06/14 10:24:41;;;;;;;7.30;2.50;;;25.00;43.20;;;;;;5072423;28;20135;-71
2023/06/14 10:27:10;;;;;;;;;;;24.90;43.50;;;;;;5073000;28;20186;-71
2023/06/14 10:29:55;;;;;;;5.70;2.50;;;24.80;43.30;;;;;;5075128;28;19920;-71
2023/06/14 10:32:25;;;;;;;5.40;2.70;;;24.70;44.10;;;;;;5076167;28;20451;-71
2023/06/14 10:34:58;;;;;;;5.00;1.90;;;24.80;44.30;;;;;;5091878;28;20047;-71
2023/06/14 10:37:24;;;;;;;4.03;2.07;;;24.90;43.90;;;;;;5076201;28;20420;-72
2023/06/14 10:39:51;;;;;;;4.40;2.30;;;24.80;44.00;;;;;;5076265;28;20049;-72
2023/06/14 10:42:17;;;;;;;4.67;2.07;;;24.80;44.30;;;;;;5075776;28;20052;-71
2023/06/14 10:44:43;;;;;;;7.40;2.27;;;24.70;44.80;;;;;;5075891;28;20072;-71
2023/06/14 10:47:24;;;;;;;5.17;2.47;;;24.70;44.10;;;;;;5076061;28;20117;-71
2023/06/14 10:50:19;;;;;;;6.83;2.33;;;24.70;44.10;;;;;;5074770;28;20055;-71
2023/06/14 10:52:45;;;;;;;4.45;2.30;;;24.60;44.50;;;;;;5073651;28;20096;-71
2023/06/14 10:55:14;;;;;;;4.07;2.23;;;24.70;44.60;;;;;;5075755;28;20045;-72
2023/06/14 10:57:52;;;;;;;6.27;2.27;;;24.70;44.80;;;;;;5075640;28;20153;-71
2023/06/14 11:00:22;;;;;;;7.83;3.50;;;24.60;44.80;;;;;;5075912;28;20048;-71
2023/06/14 11:03:10;;;;;;;5.40;2.40;;;24.60;45.30;;;;;;5075766;28;20118;-71
2023/06/14 11:05:49;;;;;;;6.37;2.30;;;24.60;45.30;;;;;;5075497;28;20142;-71
2023/06/14 11:08:27;;;;;;;6.30;2.27;;;24.60;45.10;;;;;;5075643;28;20048;-72
2023/06/14 11:10:58;;;;;;;6.63;2.43;;;24.50;45.20;;;;;;5074747;28;20048;-72
2023/06/14 11:13:25;;;;;;;6.77;2.73;;;24.50;45.20;;;;;;5075533;28;20408;-71
2023/06/14 11:15:53;;;;;;;6.03;2.20;;;24.50;45.60;;;;;;5075658;28;20131;-72
2023/06/14 11:18:27;;;;;;;7.60;2.40;;;24.60;45.70;;;;;;5075430;28;20507;-72
2023/06/14 11:20:53;;;;;;;9.27;2.60;;;24.60;46.60;;;;;;5074453;28;20052;-71
2023/06/14 11:23:18;;;;;;;11.00;2.70;;;24.60;45.60;;;;;;5075453;28;20396;-72
2023/06/14 11:25:50;;;;;;;6.77;2.00;;;24.50;45.40;;;;;;5090824;28;20040;-71
2023/06/14 11:28:16;;;;;;;6.87;2.40;;;24.50;45.30;;;;;;5075381;28;20141;-71
2023/06/14 11:30:42;;;;;;;6.23;2.17;;;24.40;45.60;;;;;;5075040;28;20086;-71
2023/06/14 11:33:11;;;;;;;4.97;2.30;;;24.40;46.20;;;;;;5074810;28;20056;-71
2023/06/14 11:35:36;;;;;;;7.27;2.10;;;24.30;46.00;;;;;;5074824;28;20459;-71
2023/06/14 11:38:02;;;;;;;6.57;2.30;;;24.40;46.30;;;;;;5074066;28;20135;-71
2023/06/14 11:40:28;;;;;;;5.93;2.23;;;24.50;46.10;;;;;;5073709;28;20057;-71
2023/06/14 11:43:01;;;;;;;8.83;2.60;;;24.60;45.50;;;;;;5074931;28;20052;-71
2023/06/14 11:45:27;;;;;;;4.87;2.00;;;24.70;45.20;;;;;;5074690;28;20075;-71
2023/06/14 11:47:58;;;;;;;10.63;2.60;;;24.70;44.80;;;;;;5075151;28;20049;-72
2023/06/14 11:50:24;;;;;;;8.23;2.43;;;24.70;45.10;;;;;;5074900;28;20091;-72
2023/06/14 11:52:59;;;;;;;7.07;2.30;;;24.80;45.00;;;;;;5074607;28;20087;-71
2023/06/14 11:55:25;;;;;;;7.33;2.60;;;24.70;45.40;;;;;;5056996;28;20098;-71
2023/06/14 11:57:54;;;;;;;4.90;2.50;;;24.70;45.90;;;;;;5074504;28;20062;-71
2023/06/14 12:00:25;;;;;;;5.60;2.37;;;24.60;46.30;;;;;;5074656;28;20136;-71
2023/06/14 12:02:55;;;;;;;4.37;2.00;;;24.70;46.40;;;;;;5074393;28;20044;-72
2023/06/14 12:05:22;;;;;;;4.27;2.03;;;24.70;46.60;;;;;;5074537;28;20045;-72
2023/06/14 12:07:48;;;;;;;7.93;2.40;;;24.70;45.90;;;;;;5074296;28;20044;-72
2023/06/14 12:10:14;;;;;;;10.13;2.07;;;24.70;45.40;;;;;;5074474;28;20095;-72
2023/06/14 12:12:40;;;;;;;6.67;2.47;;;24.70;45.90;;;;;;5073111;28;20447;-72
2023/06/14 12:15:07;;;;;;;6.00;2.23;;;24.80;45.70;;;;;;5074489;28;20048;-72
2023/06/14 12:17:41;;;;;;;5.07;2.20;;;24.70;46.10;;;;;;5074157;28;20087;-72
2023/06/14 12:20:21;;;;;;;5.05;2.20;;;24.70;46.10;;;;;;5074329;28;20508;-72
2023/06/14 12:22:51;;;;;;;4.63;2.00;;;24.80;46.10;;;;;;5074107;28;20097;-72
2023/06/14 12:25:38;;;;;;;7.33;2.23;;;24.90;46.10;;;;;;5074429;28;20416;-72
2023/06/14 12:28:08;;;;;;;4.13;2.10;;;25.00;45.70;;;;;;5074151;28;20044;-72
2023/06/14 12:30:36;;;;;;;7.23;2.77;;;25.00;45.20;;;;;;5073850;28;20044;-72
2023/06/14 12:33:05;;;;;;;8.87;2.13;;;25.00;45.50;;;;;;5074082;28;20051;-72
2023/06/14 12:35:31;;;;;;;7.90;2.10;;;24.90;44.70;;;;;;5073931;28;20052;-71
2023/06/14 12:37:57;;;;;;;3.87;2.07;;;24.90;45.40;;;;;;5074210;28;20048;-71
2023/06/14 12:40:23;;;;;;;4.73;2.10;;;24.90;45.50;;;;;;5073704;28;20060;-72
2023/06/14 12:42:49;;;;;;;3.03;1.60;;;24.90;44.60;;;;;;5073791;28;20053;-71
2023/06/14 12:45:15;;;;;;;4.80;1.93;;;24.90;44.30;;;;;;5072883;28;20124;-72
2023/06/14 12:47:42;;;;;;;4.03;1.63;;;24.80;44.30;;;;;;5073628;28;20459;-71
2023/06/14 12:50:08;;;;;;;5.33;1.70;;;25.00;43.90;;;;;;5073689;28;20048;-71